Time,TemperatureF,DewpointF,PressureIn,WindDirection,WindDirectionDegrees,WindSpeedMPH,WindSpeedGustMPH,Humidity,HourlyPrecipIn,Conditions,Clouds,dailyrainin,SoftwareType,DateUTC
2013-01-14 00:00:00,53.4,50.5,29.98,SSW,202,0.0,0.6,90,0.00,,---,0.00,VWS V13.00,2013-01-14 05:00:00,
2013-01-14 00:01:00,53.4,50.5,29.98,SSE,158,0.0,0.0,90,0.00,,---,0.00,VWS V13.00,2013-01-14 05:01:00,
2013-01-14 00:03:00,53.4,50.5,29.99,South,180,0.0,0.0,90,0.00,,---,0.00,VWS V13.00,2013-01-14 05:03:00,
2013-01-14 00:08:00,53.4,50.5,29.99,South,180,0.0,0.0,90,0.00,,---,0.00,VWS V13.00,2013-01-14 05:08:00,
2013-01-14 00:13:00,53.4,50.5,29.99,South,180,2.6,2.6,90,0.00,,---,0.00,VWS V13.00,2013-01-14 05:13:00,
2013-01-14 00:18:00,53.2,50.3,29.99,SSW,202,0.0,2.6,90,0.00,,---,0.00,VWS V13.00,2013-01-14 05:18:00,
2013-01-14 00:20:00,53.2,50.3,29.98,South,180,0.0,2.6,90,0.00,,---,0.00,VWS V13.00,2013-01-14 05:20:00,
2013-01-14 00:23:00,53.2,50.3,29.99,South,180,0.0,0.0,90,0.00,,---,0.00,VWS V13.00,2013-01-14 05:23:00,
2013-01-14 00:28:00,52.8,50.0,29.99,South,180,0.0,0.0,90,0.00,,---,0.00,VWS V13.00,2013-01-14 05:28:00,
2013-01-14 00:33:00,52.8,50.0,29.99,SSE,158,0.0,0.0,90,0.00,,---,0.00,VWS V13.00,2013-01-14 05:33:00,
2013-01-14 00:38:00,52.7,49.8,29.98,SSE,158,0.0,0.0,90,0.00,,---,0.00,VWS V13.00,2013-01-14 05:38:00,
2013-01-14 00:40:00,52.7,49.8,29.99,SSE,158,0.0,0.0,90,0.00,,---,0.00,VWS V13.00,2013-01-14 05:40:00,
2013-01-14 00:43:00,52.7,49.8,29.99,SSE,158,0.0,0.0,90,0.00,,---,0.00,VWS V13.00,2013-01-14 05:43:00,
2013-01-14 00:48:00,52.5,49.7,29.98,SSE,158,0.0,0.0,90,0.00,,---,0.00,VWS V13.00,2013-01-14 05:48:00,
2013-01-14 00:53:00,52.5,49.7,29.98,SSW,202,0.0,0.0,90,0.00,,---,0.00,VWS V13.00,2013-01-14 05:53:00,
2013-01-14 00:58:00,52.3,49.5,29.98,SSW,202,0.0,0.0,90,0.00,,---,0.00,VWS V13.00,2013-01-14 05:58:00,
2013-01-14 01:00:00,52.3,49.5,29.99,SSW,202,0.0,0.0,90,0.00,,---,0.00,VWS V13.00,2013-01-14 06:00:00,
2013-01-14 01:03:00,52.3,49.5,29.99,SSW,202,0.0,0.0,90,0.00,,---,0.00,VWS V13.00,2013-01-14 06:03:00,
2013-01-14 01:08:00,52.3,49.5,29.99,SSW,202,0.0,0.0,90,0.00,,---,0.00,VWS V13.00,2013-01-14 06:08:00,
2013-01-14 01:13:00,52.1,49.3,29.98,SSW,202,0.0,0.0,90,0.00,,---,0.00,VWS V13.00,2013-01-14 06:13:00,
2013-01-14 01:18:00,51.9,49.1,29.98,SSW,202,0.0,0.0,90,0.00,,---,0.00,VWS V13.00,2013-01-14 06:18:00,
2013-01-14 01:20:00,51.9,49.1,29.98,SSW,202,0.0,0.0,90,0.00,,---,0.00,VWS V13.00,2013-01-14 06:20:00,
2013-01-14 01:23:00,51.9,49.1,29.98,SSW,202,0.0,0.0,90,0.00,,---,0.00,VWS V13.00,2013-01-14 06:23:00,
2013-01-14 17:10:00,40.1,37.1,30.19,ENE,68,0.0,0.0,89,0.00,,---,0.18,VWS V13.00,2013-01-14 22:10:00,
2013-01-14 18:01:00,54.1,46.4,30.13,NE,45,0.0,0.0,75,0.00,,---,0.00,VWS V13.00,2013-01-14 23:01:00,
2013-01-14 18:06:00,54.1,46.7,30.13,NE,45,0.0,0.0,76,0.00,,---,0.00,VWS V13.00,2013-01-14 23:06:00,
2013-01-14 18:11:00,53.7,46.0,30.13,NE,45,0.0,0.0,75,0.00,,---,0.00,VWS V13.00,2013-01-14 23:11:00,
2013-01-14 18:16:00,53.7,46.3,30.15,North,0,0.0,0.0,76,0.00,,---,0.00,VWS V13.00,2013-01-14 23:16:00,
2013-01-14 18:21:00,53.7,46.3,30.15,NNW,338,0.0,0.0,76,0.00,,---,0.00,VWS V13.00,2013-01-14 23:21:00,
2013-01-14 18:26:00,53.7,46.3,30.15,North,0,0.0,0.0,76,0.00,,---,0.00,VWS V13.00,2013-01-14 23:26:00,
2013-01-14 18:31:00,53.7,46.0,30.16,NNW,338,0.0,0.0,75,0.00,,---,0.00,VWS V13.00,2013-01-14 23:31:00,
2013-01-14 18:36:00,53.9,46.2,30.14,NNW,338,0.0,1.3,75,0.00,,---,0.00,VWS V13.00,2013-01-14 23:36:00,
2013-01-14 18:41:00,53.7,45.6,30.14,ESE,112,0.0,0.0,74,0.00,,---,0.00,VWS V13.00,2013-01-14 23:41:00,
2013-01-14 18:46:00,53.7,45.6,30.15,ESE,112,0.0,0.0,74,0.00,,---,0.00,VWS V13.00,2013-01-14 23:46:00,
2013-01-14 18:51:00,53.7,45.6,30.14,NNW,338,0.0,0.0,74,0.00,,---,0.00,VWS V13.00,2013-01-14 23:51:00,
2013-01-14 18:56:00,53.7,45.6,30.14,NNW,338,0.0,0.0,74,0.00,,---,0.00,VWS V13.00,2013-01-14 23:56:00,
2013-01-14 19:01:00,53.7,45.6,30.14,NNW,338,0.0,0.0,74,0.00,,---,0.00,VWS V13.00,2013-01-15 00:01:00,
2013-01-14 19:06:00,53.7,45.6,30.14,NNW,338,0.0,0.0,74,0.00,,---,0.00,VWS V13.00,2013-01-15 00:06:00,
2013-01-14 19:11:00,53.6,45.5,30.15,NNW,338,0.0,0.0,74,0.00,,---,0.00,VWS V13.00,2013-01-15 00:11:00,
2013-01-14 19:16:00,53.6,45.5,30.16,NNW,338,0.0,0.0,74,0.00,,---,0.00,VWS V13.00,2013-01-15 00:16:00,
2013-01-14 19:21:00,53.4,45.3,30.15,NW,315,0.0,0.0,74,0.00,,---,0.00,VWS V13.00,2013-01-15 00:21:00,
2013-01-14 19:26:00,53.4,45.3,30.16,NW,315,0.0,0.0,74,0.00,,---,0.00,VWS V13.00,2013-01-15 00:26:00,
2013-01-14 19:31:00,53.4,45.3,30.16,North,0,0.0,0.0,74,0.00,,---,0.00,VWS V13.00,2013-01-15 00:31:00,
2013-01-14 19:36:00,53.4,45.3,30.16,NW,315,0.0,0.0,74,0.00,,---,0.00,VWS V13.00,2013-01-15 00:36:00,
2013-01-14 19:41:00,53.2,45.1,30.16,North,0,0.0,0.0,74,0.00,,---,0.00,VWS V13.00,2013-01-15 00:41:00,
2013-01-14 19:46:00,53.2,45.1,30.17,NNW,338,0.0,0.8,74,0.02,,---,0.02,VWS V13.00,2013-01-15 00:46:00,
2013-01-14 19:51:00,53.2,45.1,30.17,NNW,338,0.0,1.1,74,0.02,,---,0.02,VWS V13.00,2013-01-15 00:51:00,
2013-01-14 19:56:00,53.2,45.1,30.17,North,0,0.0,1.1,74,0.02,,---,0.02,VWS V13.00,2013-01-15 00:56:00,
2013-01-14 20:01:00,52.8,44.8,30.18,NNW,338,0.0,0.0,74,0.02,,---,0.02,VWS V13.00,2013-01-15 01:01:00,
2013-01-14 20:06:00,52.8,44.8,30.19,North,0,0.0,2.9,74,0.02,,---,0.02,VWS V13.00,2013-01-15 01:06:00,
2013-01-14 20:11:00,52.7,44.7,30.19,NNW,338,0.0,2.9,74,0.02,,---,0.02,VWS V13.00,2013-01-15 01:11:00,
2013-01-14 20:16:00,52.7,44.7,30.19,North,0,0.0,2.9,74,0.02,,---,0.02,VWS V13.00,2013-01-15 01:16:00,
2013-01-14 20:21:00,52.5,44.5,30.19,WNW,292,1.3,1.3,74,0.02,,---,0.02,VWS V13.00,2013-01-15 01:21:00,
2013-01-14 20:26:00,52.5,44.1,30.19,NE,45,0.0,1.3,73,0.02,,---,0.02,VWS V13.00,2013-01-15 01:26:00,
2013-01-14 20:31:00,52.3,43.9,30.19,NNW,338,1.5,1.5,73,0.02,,---,0.02,VWS V13.00,2013-01-15 01:31:00,
2013-01-14 20:36:00,52.1,43.7,30.18,NW,315,4.0,6.4,73,0.02,,---,0.02,VWS V13.00,2013-01-15 01:36:00,
2013-01-14 20:41:00,51.9,43.5,30.18,WNW,292,0.0,0.0,73,0.00,,---,0.02,VWS V13.00,2013-01-15 01:41:00,
2013-01-14 20:46:00,51.8,43.4,30.18,North,0,0.0,0.0,73,0.00,,---,0.02,VWS V13.00,2013-01-15 01:46:00,
2013-01-14 20:51:00,51.4,43.4,30.18,North,0,2.0,2.6,74,0.00,,---,0.02,VWS V13.00,2013-01-15 01:51:00,
2013-01-14 20:56:00,51.4,43.4,30.18,North,0,0.0,2.6,74,0.00,,---,0.02,VWS V13.00,2013-01-15 01:56:00,
2013-01-14 21:01:00,51.4,43.8,30.19,NNE,22,0.0,0.0,75,0.00,,---,0.02,VWS V13.00,2013-01-15 02:01:00,
2013-01-14 21:06:00,51.0,43.4,30.18,NNW,338,4.2,4.4,75,0.00,,---,0.02,VWS V13.00,2013-01-15 02:06:00,
2013-01-14 21:11:00,51.0,43.4,30.19,NE,45,0.0,4.4,75,0.00,,---,0.02,VWS V13.00,2013-01-15 02:11:00,
2013-01-14 21:16:00,50.9,43.3,30.19,North,0,0.0,6.4,75,0.00,,---,0.02,VWS V13.00,2013-01-15 02:16:00,
2013-01-14 21:21:00,50.7,43.4,30.20,NNW,338,1.5,1.5,76,0.00,,---,0.02,VWS V13.00,2013-01-15 02:21:00,
2013-01-14 21:26:00,50.5,43.2,30.20,North,0,0.0,2.6,76,0.00,,---,0.02,VWS V13.00,2013-01-15 02:26:00,
2013-01-14 21:31:00,50.3,43.4,30.20,WNW,292,4.0,4.9,77,0.00,,---,0.02,VWS V13.00,2013-01-15 02:31:00,
2013-01-14 21:36:00,49.8,43.2,30.19,NNE,22,0.0,4.9,78,0.02,,---,0.04,VWS V13.00,2013-01-15 02:36:00,
2013-01-14 21:41:00,49.6,43.0,30.20,WNW,292,0.0,0.0,78,0.02,,---,0.04,VWS V13.00,2013-01-15 02:41:00,
2013-01-14 21:46:00,49.4,43.2,30.20,North,0,0.0,0.0,79,0.02,,---,0.04,VWS V13.00,2013-01-15 02:46:00,
2013-01-14 21:51:00,49.2,43.3,30.20,NNE,22,0.0,3.3,80,0.02,,---,0.04,VWS V13.00,2013-01-15 02:51:00,
2013-01-14 21:56:00,49.1,43.2,30.20,NNE,22,3.5,3.5,80,0.02,,---,0.04,VWS V13.00,2013-01-15 02:56:00,
2013-01-14 22:01:00,48.9,43.3,30.19,ENE,68,0.0,0.0,81,0.02,,---,0.04,VWS V13.00,2013-01-15 03:01:00,
2013-01-14 22:06:00,48.7,43.1,30.19,NNW,338,0.0,0.0,81,0.02,,---,0.04,VWS V13.00,2013-01-15 03:06:00,
2013-01-14 22:11:00,48.7,43.1,30.20,North,0,0.0,0.0,81,0.02,,---,0.04,VWS V13.00,2013-01-15 03:11:00,
2013-01-14 22:16:00,48.7,43.1,30.20,NNW,338,0.0,0.0,81,0.02,,---,0.04,VWS V13.00,2013-01-15 03:16:00,
2013-01-14 22:21:00,48.7,43.5,30.19,ESE,112,0.0,0.0,82,0.02,,---,0.04,VWS V13.00,2013-01-15 03:21:00,
2013-01-14 22:26:00,48.5,43.3,30.19,NNW,338,0.0,0.0,82,0.02,,---,0.04,VWS V13.00,2013-01-15 03:26:00,
2013-01-14 22:31:00,48.3,43.1,30.19,NE,45,0.8,0.8,82,0.02,,---,0.04,VWS V13.00,2013-01-15 03:31:00,
2013-01-14 22:36:00,48.3,43.1,30.19,West,270,0.0,0.8,82,0.00,,---,0.04,VWS V13.00,2013-01-15 03:36:00,
2013-01-14 22:41:00,48.2,43.3,30.19,NNE,22,0.0,0.0,83,0.00,,---,0.04,VWS V13.00,2013-01-15 03:41:00,
2013-01-14 22:46:00,48.2,43.3,30.20,North,0,0.0,0.0,83,0.00,,---,0.04,VWS V13.00,2013-01-15 03:46:00,
2013-01-14 22:51:00,48.2,43.3,30.20,ENE,68,0.0,0.0,83,0.00,,---,0.04,VWS V13.00,2013-01-15 03:51:00,
2013-01-14 22:56:00,48.2,43.6,30.20,NE,45,1.3,1.3,84,0.00,,---,0.04,VWS V13.00,2013-01-15 03:56:00,
2013-01-14 23:01:00,48.0,43.4,30.21,NNE,22,0.0,0.0,84,0.00,,---,0.04,VWS V13.00,2013-01-15 04:01:00,
2013-01-14 23:06:00,48.0,43.4,30.19,ESE,112,0.0,0.0,84,0.00,,---,0.04,VWS V13.00,2013-01-15 04:06:00,
2013-01-14 23:11:00,48.0,43.4,30.19,SSW,202,0.0,0.0,84,0.00,,---,0.04,VWS V13.00,2013-01-15 04:11:00,
2013-01-14 23:16:00,47.8,43.2,30.19,ENE,68,3.3,3.3,84,0.00,,---,0.04,VWS V13.00,2013-01-15 04:16:00,
2013-01-14 23:21:00,47.4,42.8,30.19,NE,45,0.0,0.0,84,0.02,,---,0.06,VWS V13.00,2013-01-15 04:21:00,
2013-01-14 23:26:00,47.3,42.7,30.20,NE,45,0.0,0.0,84,0.02,,---,0.06,VWS V13.00,2013-01-15 04:26:00,
2013-01-14 23:31:00,47.3,42.7,30.20,NNE,22,4.4,4.4,84,0.02,,---,0.06,VWS V13.00,2013-01-15 04:31:00,
2013-01-14 23:36:00,47.1,42.8,30.20,NE,45,0.0,4.4,85,0.02,,---,0.06,VWS V13.00,2013-01-15 04:36:00,
2013-01-14 23:41:00,47.1,42.8,30.20,ENE,68,0.0,0.0,85,0.02,,---,0.06,VWS V13.00,2013-01-15 04:41:00,
2013-01-14 23:46:00,47.1,42.8,30.20,North,0,2.9,2.9,85,0.04,,---,0.08,VWS V13.00,2013-01-15 04:46:00,
2013-01-14 23:51:00,46.9,42.6,30.21,ENE,68,0.0,2.9,85,0.04,,---,0.08,VWS V13.00,2013-01-15 04:51:00,
2013-01-14 23:56:00,46.5,41.9,30.21,ESE,112,4.0,5.3,84,0.04,,---,0.08,VWS V13.00,2013-01-15 04:56:00,